createdAt,value
2023-03-28T00:02:06.087Z,2.66
2023-03-28T00:04:34.178Z,2.70
2023-03-28T00:07:02.158Z,2.70
2023-03-28T00:09:31.547Z,2.65
2023-03-28T00:11:59.471Z,2.59
2023-03-28T00:14:27.383Z,2.49
2023-03-28T00:16:55.107Z,2.43
2023-03-28T00:19:23.037Z,2.46
2023-03-28T00:21:51.641Z,2.56
2023-03-28T00:24:21.569Z,2.49
2023-03-28T00:26:54.530Z,2.52
2023-03-28T00:29:26.085Z,2.57
2023-03-28T00:31:54.022Z,2.55
2023-03-28T00:34:22.101Z,2.56
2023-03-28T00:36:50.740Z,2.52
2023-03-28T00:39:18.464Z,2.53
2023-03-28T00:41:46.823Z,2.64
2023-03-28T00:44:45.610Z,2.64
2023-03-28T00:47:25.821Z,2.74
2023-03-28T00:49:57.000Z,2.71
2023-03-28T00:52:29.627Z,2.64
2023-03-28T00:54:59.460Z,2.64
2023-03-28T00:57:30.068Z,2.71
2023-03-28T00:59:59.461Z,2.61
2023-03-28T01:02:27.854Z,2.62
2023-03-28T01:05:00.409Z,2.73
2023-03-28T01:07:35.272Z,2.69
2023-03-28T01:10:05.128Z,2.66
2023-03-28T01:12:34.483Z,2.56
2023-03-28T01:15:05.353Z,2.64
2023-03-28T01:17:46.368Z,2.54
2023-03-28T01:20:32.647Z,2.50
2023-03-28T01:23:23.860Z,2.52
2023-03-28T01:26:18.537Z,2.60
2023-03-28T01:29:12.416Z,2.59
2023-03-28T01:32:08.062Z,2.51
2023-03-28T01:35:33.109Z,2.47
2023-03-28T01:38:10.720Z,2.37
2023-03-28T01:40:47.604Z,2.41
2023-03-28T01:43:27.187Z,2.45
2023-03-28T01:46:00.403Z,2.38
2023-03-28T01:48:41.180Z,2.35
2023-03-28T01:51:16.167Z,2.34
2023-03-28T01:53:48.886Z,2.34
2023-03-28T01:56:23.872Z,2.10
2023-03-28T01:58:57.256Z,1.94
2023-03-28T02:01:46.778Z,1.91
2023-03-28T02:04:21.397Z,1.84
2023-03-28T02:07:01.903Z,1.69
2023-03-28T02:09:37.699Z,1.52
2023-03-28T02:12:12.480Z,1.44
2023-03-28T02:14:58.267Z,1.19
2023-03-28T02:18:00.992Z,1.10
2023-03-28T02:20:57.607Z,1.05
2023-03-28T02:23:48.869Z,0.94
2023-03-28T02:26:34.854Z,0.78
2023-03-28T02:29:16.812Z,0.75
2023-03-28T02:31:52.775Z,0.84
2023-03-28T02:34:20.731Z,0.87
2023-03-28T02:36:58.105Z,0.87
2023-03-28T02:39:47.019Z,1.08
2023-03-28T02:42:36.383Z,1.20
2023-03-28T02:45:39.643Z,1.33
2023-03-28T02:48:20.128Z,1.54
2023-03-28T02:50:57.515Z,1.49
2023-03-28T02:53:33.483Z,1.50
2023-03-28T02:56:07.942Z,1.56
2023-03-28T02:58:58.409Z,1.51
2023-03-28T03:01:29.320Z,1.20
2023-03-28T03:03:58.345Z,0.87
2023-03-28T03:06:26.427Z,0.67
2023-03-28T03:08:54.656Z,0.62
2023-03-28T03:11:27.927Z,0.48
2023-03-28T03:14:00.096Z,0.47
2023-03-28T03:16:29.623Z,0.53
2023-03-28T03:18:59.579Z,0.53
2023-03-28T03:21:28.073Z,0.53
2023-03-28T03:23:56.202Z,0.54
2023-03-28T03:26:24.148Z,0.43
2023-03-28T03:29:01.459Z,0.43
2023-03-28T03:31:30.099Z,0.41
2023-03-28T03:34:05.882Z,0.38
2023-03-28T03:36:40.546Z,0.34
2023-03-28T03:39:09.167Z,0.34
2023-03-28T03:41:37.710Z,0.36
2023-03-28T03:44:09.079Z,0.41
2023-03-28T03:46:37.777Z,0.37
2023-03-28T03:49:05.856Z,0.42
2023-03-28T03:51:34.886Z,0.40
2023-03-28T03:54:02.675Z,0.40
2023-03-28T03:56:35.796Z,0.37
2023-03-28T03:59:03.572Z,0.34
2023-03-28T04:01:34.864Z,0.40
2023-03-28T04:04:34.844Z,0.44
2023-03-28T04:07:12.476Z,0.37
2023-03-28T04:09:40.358Z,0.35
2023-03-28T04:12:09.607Z,0.36
2023-03-28T04:14:57.809Z,0.35
2023-03-28T04:17:56.920Z,0.31
2023-03-28T04:20:29.842Z,0.38
2023-03-28T04:23:09.689Z,0.40
2023-03-28T04:25:41.906Z,0.37
2023-03-28T04:28:17.323Z,0.39
2023-03-28T04:30:59.599Z,0.39
2023-03-28T04:33:47.694Z,0.39
2023-03-28T04:36:18.939Z,0.33
2023-03-28T04:38:58.282Z,0.32
2023-03-28T04:41:46.078Z,0.36
2023-03-28T04:44:26.568Z,0.32
2023-03-28T04:47:03.312Z,0.34
2023-03-28T04:49:33.141Z,0.37
2023-03-28T04:52:01.185Z,0.36
2023-03-28T04:54:29.560Z,0.33
2023-03-28T04:57:06.732Z,0.34
2023-03-28T04:59:44.242Z,0.38
2023-03-28T05:02:18.390Z,0.38
2023-03-28T05:05:04.784Z,0.36
2023-03-28T05:07:33.691Z,0.36
2023-03-28T05:10:01.444Z,0.32
2023-03-28T05:12:35.720Z,0.30
2023-03-28T05:15:06.215Z,0.28
2023-03-28T05:17:40.977Z,0.30
2023-03-28T05:20:21.399Z,0.31
2023-03-28T05:22:53.412Z,0.29
2023-03-28T05:25:21.962Z,0.26
2023-03-28T05:27:50.407Z,0.25
2023-03-28T05:30:18.134Z,0.26
2023-03-28T05:32:47.996Z,0.29
2023-03-28T05:35:17.796Z,0.29
2023-03-28T05:37:48.175Z,0.31
2023-03-28T05:40:16.873Z,0.34
2023-03-28T05:42:44.898Z,0.36
2023-03-28T05:45:19.597Z,0.40
2023-03-28T05:48:00.394Z,0.38
2023-03-28T05:50:28.736Z,0.41
2023-03-28T05:53:02.828Z,0.47
2023-03-28T05:55:31.547Z,0.56
2023-03-28T05:58:00.187Z,0.58
2023-03-28T06:00:37.156Z,0.63
2023-03-28T06:03:05.811Z,0.72
2023-03-28T06:05:37.657Z,0.74
2023-03-28T06:08:20.203Z,0.82
2023-03-28T06:10:49.447Z,0.87
2023-03-28T06:13:28.858Z,0.99
2023-03-28T06:15:56.686Z,1.10
2023-03-28T06:18:32.988Z,1.21
2023-03-28T06:21:01.164Z,1.30
2023-03-28T06:23:30.627Z,1.38
2023-03-28T06:25:58.927Z,1.46
2023-03-28T06:28:33.289Z,1.47
2023-03-28T06:31:21.726Z,1.41
2023-03-28T06:33:50.745Z,1.44
2023-03-28T06:36:21.748Z,1.52
2023-03-28T06:38:53.538Z,1.60
2023-03-28T06:41:22.873Z,1.67
2023-03-28T06:43:51.722Z,1.78
2023-03-28T06:46:58.087Z,1.91
2023-03-28T06:49:26.472Z,2.15
2023-03-28T06:52:23.408Z,2.28
2023-03-28T06:54:54.626Z,2.44
2023-03-28T06:57:22.549Z,2.55
2023-03-28T06:59:53.827Z,2.61
2023-03-28T07:02:28.810Z,2.74
2023-03-28T07:05:02.508Z,2.87
2023-03-28T07:07:30.293Z,2.96
2023-03-28T07:10:00.514Z,3.00
2023-03-28T07:12:28.259Z,3.11
2023-03-28T07:14:56.471Z,3.26
2023-03-28T07:17:25.015Z,3.41
2023-03-28T07:19:54.457Z,3.62
2023-03-28T07:22:23.572Z,3.81
2023-03-28T07:24:51.358Z,4.06
2023-03-28T07:27:23.819Z,4.02
2023-03-28T07:29:52.883Z,4.31
2023-03-28T07:32:20.915Z,4.69
2023-03-28T07:34:49.178Z,4.78
2023-03-28T07:37:24.564Z,5.14
2023-03-28T07:40:10.772Z,4.69
2023-03-28T07:42:42.310Z,4.99
2023-03-28T07:45:11.790Z,5.49
2023-03-28T07:47:39.640Z,6.10
2023-03-28T07:50:08.673Z,6.73
2023-03-28T07:52:36.610Z,6.22
2023-03-28T07:55:04.759Z,6.54
2023-03-28T07:57:36.884Z,7.11
2023-03-28T08:00:17.749Z,6.51
2023-03-28T08:03:01.753Z,7.01
2023-03-28T08:05:29.696Z,7.16
2023-03-28T08:07:58.576Z,7.67
2023-03-28T08:10:27.058Z,7.49
2023-03-28T08:12:55.616Z,7.11
2023-03-28T08:15:24.773Z,7.12
2023-03-28T08:17:52.931Z,7.37
2023-03-28T08:20:21.420Z,7.36
2023-03-28T08:23:21.438Z,8.56
2023-03-28T08:26:08.285Z,8.48
2023-03-28T08:28:39.558Z,8.40
2023-03-28T08:31:14.127Z,8.23
2023-03-28T08:33:45.480Z,8.81
2023-03-28T08:36:14.826Z,9.04
2023-03-28T08:38:46.804Z,9.41
2023-03-28T08:41:31.238Z,9.21
2023-03-28T08:44:18.659Z,9.01
2023-03-28T08:46:52.144Z,8.96
2023-03-28T08:49:20.848Z,9.16
2023-03-28T08:51:52.702Z,9.27
2023-03-28T08:54:25.886Z,9.41
2023-03-28T08:56:57.010Z,9.24
2023-03-28T08:59:30.484Z,8.98
2023-03-28T09:02:00.290Z,8.70
2023-03-28T09:04:33.014Z,8.71
2023-03-28T09:07:20.297Z,8.12
2023-03-28T09:09:56.901Z,7.45
2023-03-28T09:12:47.191Z,7.76
2023-03-28T09:15:25.475Z,8.36
2023-03-28T09:18:07.709Z,8.14
2023-03-28T09:20:44.719Z,7.60
2023-03-28T09:24:03.969Z,8.05
2023-03-28T09:26:58.543Z,7.96
2023-03-28T09:29:28.671Z,8.56
2023-03-28T09:32:02.484Z,8.45
2023-03-28T09:34:40.598Z,9.05
2023-03-28T09:37:18.279Z,9.19
2023-03-28T09:39:51.624Z,9.12
2023-03-28T09:42:36.250Z,8.45
2023-03-28T09:45:47.061Z,8.30
2023-03-28T09:48:48.440Z,8.65
2023-03-28T09:51:21.739Z,9.03
2023-03-28T09:53:49.738Z,8.88
2023-03-28T09:56:27.683Z,8.87
2023-03-28T09:59:02.761Z,8.66
2023-03-28T10:01:47.896Z,8.65
2023-03-28T10:04:36.886Z,9.10
2023-03-28T10:07:32.599Z,9.46
2023-03-28T10:10:21.675Z,10.16
2023-03-28T10:12:58.386Z,10.14
2023-03-28T10:15:34.233Z,9.60
2023-03-28T10:18:28.074Z,9.38
2023-03-28T10:21:16.847Z,9.67
2023-03-28T10:23:58.693Z,10.40
2023-03-28T10:26:28.384Z,9.96
2023-03-28T10:29:04.305Z,10.29
2023-03-28T10:31:34.232Z,10.09
2023-03-28T10:34:37.910Z,10.28
2023-03-28T10:37:24.693Z,10.08
2023-03-28T10:40:25.729Z,9.99
2023-03-28T10:43:21.982Z,9.86
2023-03-28T10:46:08.733Z,10.08
2023-03-28T10:48:53.954Z,9.95
2023-03-28T10:51:24.695Z,9.78
2023-03-28T10:54:26.481Z,9.48
2023-03-28T10:56:59.443Z,9.57
2023-03-28T10:59:46.909Z,10.18
2023-03-28T11:02:35.348Z,10.31
2023-03-28T11:05:21.752Z,10.46
2023-03-28T11:07:55.585Z,10.37
2023-03-28T11:11:00.095Z,10.73
2023-03-28T11:13:49.501Z,10.55
2023-03-28T11:16:35.308Z,10.43
2023-03-28T11:19:34.063Z,10.68
2023-03-28T11:22:14.755Z,10.78
2023-03-28T11:24:58.804Z,10.82
2023-03-28T11:27:54.865Z,10.39
2023-03-28T11:30:36.416Z,10.76
2023-03-28T11:33:30.436Z,10.78
2023-03-28T11:36:08.901Z,10.85
2023-03-28T11:38:41.502Z,10.75
2023-03-28T11:41:13.991Z,10.87
2023-03-28T11:44:04.283Z,10.83
2023-03-28T11:46:38.363Z,10.70
2023-03-28T11:49:15.311Z,11.09
2023-03-28T11:51:50.032Z,11.36
2023-03-28T11:54:21.331Z,9.98
2023-03-28T11:56:56.208Z,9.45
2023-03-28T11:59:55.447Z,9.96
2023-03-28T12:02:42.351Z,10.45
2023-03-28T12:05:20.883Z,10.22
2023-03-28T12:07:53.734Z,10.77
2023-03-28T12:10:29.384Z,11.09
2023-03-28T12:13:07.175Z,11.23
2023-03-28T12:15:47.321Z,10.96
2023-03-28T12:18:29.106Z,10.31
2023-03-28T12:21:03.459Z,11.25
2023-03-28T12:23:50.173Z,11.39
2023-03-28T12:26:56.037Z,11.61
2023-03-28T12:29:32.654Z,11.70
2023-03-28T12:32:05.245Z,12.36
2023-03-28T12:34:40.571Z,12.30
2023-03-28T12:37:23.416Z,11.82
2023-03-28T12:39:59.513Z,11.43
2023-03-28T12:42:31.060Z,11.19
2023-03-28T12:45:01.977Z,11.82
2023-03-28T12:47:36.430Z,12.39
2023-03-28T12:50:11.262Z,13.43
2023-03-28T12:52:43.761Z,13.00
2023-03-28T12:55:43.781Z,12.64
2023-03-28T12:58:21.074Z,12.97
2023-03-28T13:01:27.239Z,12.94
2023-03-28T13:04:27.463Z,13.26
2023-03-28T13:07:24.850Z,13.30
2023-03-28T13:10:08.174Z,12.48
2023-03-28T13:12:53.960Z,11.75
2023-03-28T13:15:28.500Z,12.61
2023-03-28T13:18:32.656Z,13.28
2023-03-28T13:21:04.292Z,12.69
2023-03-28T13:23:46.085Z,12.87
2023-03-28T13:26:14.888Z,13.16
2023-03-28T13:28:45.789Z,12.81
2023-03-28T13:31:22.012Z,11.94
2023-03-28T13:33:55.076Z,11.93
2023-03-28T13:36:26.748Z,11.53
2023-03-28T13:39:09.541Z,11.65
2023-03-28T13:41:59.470Z,11.63
2023-03-28T13:44:34.746Z,11.15
2023-03-28T13:47:02.944Z,11.66
2023-03-28T13:49:42.767Z,11.36
2023-03-28T13:52:16.074Z,11.19
2023-03-28T13:54:46.627Z,11.24
2023-03-28T13:57:18.679Z,11.17
2023-03-28T13:59:53.032Z,11.05
2023-03-28T14:02:23.599Z,11.20
2023-03-28T14:04:54.378Z,11.06
2023-03-28T14:07:27.118Z,10.83
2023-03-28T14:09:58.108Z,10.67
2023-03-28T14:12:30.571Z,11.21
2023-03-28T14:15:00.004Z,12.01
2023-03-28T14:17:33.102Z,11.62
2023-03-28T14:20:03.908Z,11.74
2023-03-28T14:22:33.841Z,11.87
2023-03-28T14:25:06.659Z,12.25
2023-03-28T14:27:38.852Z,12.01
2023-03-28T14:30:19.500Z,11.73
2023-03-28T14:32:58.694Z,12.18
2023-03-28T14:35:29.693Z,12.04
2023-03-28T14:37:59.741Z,11.83
2023-03-28T14:40:35.362Z,12.24
2023-03-28T14:43:05.458Z,12.06
2023-03-28T14:45:37.413Z,11.69
2023-03-28T14:48:07.638Z,11.44
2023-03-28T14:50:38.927Z,11.59
2023-03-28T14:53:10.060Z,11.65
2023-03-28T14:55:41.889Z,11.81
2023-03-28T14:58:13.446Z,12.02
2023-03-28T15:00:43.410Z,11.68
2023-03-28T15:03:13.932Z,11.64
2023-03-28T15:05:44.599Z,11.52
2023-03-28T15:08:25.428Z,11.85
2023-03-28T15:10:56.963Z,11.17
2023-03-28T15:13:29.986Z,10.94
2023-03-28T15:15:59.299Z,10.74
2023-03-28T15:18:33.385Z,11.08
2023-03-28T15:21:04.522Z,11.30
2023-03-28T15:23:38.266Z,11.30
2023-03-28T15:26:14.141Z,11.34
2023-03-28T15:28:42.306Z,11.23
2023-03-28T15:31:15.192Z,10.92
2023-03-28T15:33:46.771Z,10.91
2023-03-28T15:36:17.372Z,11.00
2023-03-28T15:38:45.613Z,10.64
2023-03-28T15:41:22.310Z,10.73
2023-03-28T15:44:11.555Z,10.97
2023-03-28T15:46:39.456Z,10.70
2023-03-28T15:49:08.426Z,10.36
2023-03-28T15:51:48.947Z,10.40
2023-03-28T15:54:30.251Z,10.06
2023-03-28T15:57:01.965Z,10.04
2023-03-28T15:59:34.744Z,9.93
2023-03-28T16:02:30.931Z,9.98
2023-03-28T16:05:01.611Z,9.97
2023-03-28T16:07:35.830Z,9.96
2023-03-28T16:10:04.738Z,9.86
2023-03-28T16:12:43.470Z,9.86
2023-03-28T16:15:39.168Z,9.67
2023-03-28T16:18:36.016Z,9.54
2023-03-28T16:21:04.828Z,9.62
2023-03-28T16:23:32.528Z,9.72
2023-03-28T16:26:00.845Z,9.59
2023-03-28T16:28:30.364Z,9.43
2023-03-28T16:30:58.247Z,9.59
2023-03-28T16:33:25.983Z,9.58
2023-03-28T16:35:54.539Z,9.46
2023-03-28T16:38:22.734Z,9.40
2023-03-28T16:40:50.848Z,9.43
2023-03-28T16:43:18.795Z,9.45
2023-03-28T16:45:49.669Z,9.51
2023-03-28T16:48:18.063Z,9.42
2023-03-28T16:50:56.245Z,9.31
2023-03-28T16:53:24.032Z,9.58
2023-03-28T16:55:53.753Z,9.55
2023-03-28T16:58:21.628Z,9.43
2023-03-28T17:00:54.147Z,9.53
2023-03-28T17:03:22.149Z,9.60
2023-03-28T17:05:50.432Z,9.61
2023-03-28T17:08:18.087Z,9.40
2023-03-28T17:10:47.466Z,9.37
2023-03-28T17:13:15.690Z,9.50
2023-03-28T17:15:43.615Z,9.46
2023-03-28T17:18:12.717Z,9.50
2023-03-28T17:20:40.966Z,9.36
2023-03-28T17:23:09.016Z,9.50
2023-03-28T17:25:48.111Z,9.53
2023-03-28T17:28:22.938Z,9.44
2023-03-28T17:30:52.828Z,9.28
2023-03-28T17:33:29.401Z,9.19
2023-03-28T17:35:57.307Z,9.17
2023-03-28T17:38:25.591Z,9.45
2023-03-28T17:40:57.763Z,9.17
2023-03-28T17:43:26.222Z,9.11
2023-03-28T17:45:54.476Z,9.08
2023-03-28T17:48:22.623Z,8.99
2023-03-28T17:50:54.166Z,8.92
2023-03-28T17:53:22.026Z,8.92
2023-03-28T17:55:50.004Z,8.95
2023-03-28T17:58:17.727Z,8.89
2023-03-28T18:01:03.169Z,8.78
2023-03-28T18:03:32.293Z,8.79
2023-03-28T18:06:20.129Z,8.76
2023-03-28T18:08:48.271Z,8.77
2023-03-28T18:11:18.784Z,8.73
2023-03-28T18:13:46.981Z,8.71
2023-03-28T18:16:18.990Z,8.65
2023-03-28T18:18:47.475Z,8.64
2023-03-28T18:21:15.973Z,8.61
2023-03-28T18:23:45.576Z,8.58
2023-03-28T18:26:13.332Z,8.52
2023-03-28T18:28:41.815Z,8.44
2023-03-28T18:31:11.327Z,8.36
2023-03-28T18:33:40.212Z,8.26
2023-03-28T18:36:09.082Z,8.19
2023-03-28T18:38:38.395Z,8.13
2023-03-28T18:41:09.157Z,8.11
2023-03-28T18:43:38.166Z,8.06
2023-03-28T18:46:08.565Z,8.00
2023-03-28T18:48:37.292Z,7.93
2023-03-28T18:51:07.173Z,7.94
2023-03-28T18:53:37.863Z,7.94
2023-03-28T18:56:08.242Z,7.95
2023-03-28T18:58:36.995Z,7.95
2023-03-28T19:01:06.278Z,7.95
2023-03-28T19:03:39.872Z,7.93
2023-03-28T19:06:09.468Z,8.00
2023-03-28T19:08:37.640Z,8.03
2023-03-28T19:11:11.626Z,8.06
2023-03-28T19:13:39.562Z,8.08
2023-03-28T19:16:10.168Z,8.09
2023-03-28T19:18:39.364Z,8.05
2023-03-28T19:21:08.200Z,8.00
2023-03-28T19:23:37.506Z,8.06
2023-03-28T19:26:07.060Z,8.11
2023-03-28T19:28:37.321Z,8.00
2023-03-28T19:31:07.883Z,7.85
2023-03-28T19:33:37.086Z,7.88
2023-03-28T19:36:06.805Z,7.84
2023-03-28T19:38:36.056Z,7.72
2023-03-28T19:41:09.250Z,7.71
2023-03-28T19:43:39.616Z,7.77
2023-03-28T19:46:12.337Z,7.72
2023-03-28T19:48:41.190Z,7.67
2023-03-28T19:51:09.142Z,7.70
2023-03-28T19:53:37.462Z,7.84
2023-03-28T19:56:07.083Z,7.82
2023-03-28T19:58:35.356Z,7.74
2023-03-28T20:01:05.327Z,7.75
2023-03-28T20:03:33.611Z,7.76
2023-03-28T20:06:04.544Z,7.78
2023-03-28T20:08:34.229Z,7.79
2023-03-28T20:11:03.154Z,7.79
2023-03-28T20:13:31.460Z,7.80
2023-03-28T20:16:03.099Z,7.82
2023-03-28T20:18:32.706Z,7.82
2023-03-28T20:21:01.944Z,7.86
2023-03-28T20:23:32.644Z,7.83
2023-03-28T20:26:01.756Z,7.90
2023-03-28T20:28:32.377Z,7.92
2023-03-28T20:31:00.759Z,7.97
2023-03-28T20:33:29.985Z,7.97
2023-03-28T20:36:00.845Z,7.82
2023-03-28T20:38:30.469Z,7.79
2023-03-28T20:40:58.781Z,7.71
2023-03-28T20:43:29.439Z,7.30
2023-03-28T20:46:01.568Z,7.29
2023-03-28T20:48:36.449Z,7.07
2023-03-28T20:51:14.346Z,7.05
2023-03-28T20:53:43.539Z,7.15
2023-03-28T20:56:13.642Z,7.19
2023-03-28T20:58:42.802Z,7.16
2023-03-28T21:01:13.720Z,7.01
2023-03-28T21:03:48.171Z,7.12
2023-03-28T21:06:18.720Z,7.10
2023-03-28T21:08:48.639Z,7.23
2023-03-28T21:11:18.068Z,7.14
2023-03-28T21:13:46.947Z,7.14
2023-03-28T21:16:15.896Z,7.18
2023-03-28T21:18:44.256Z,7.17
2023-03-28T21:21:13.986Z,7.11
2023-03-28T21:23:44.554Z,7.12
2023-03-28T21:26:13.980Z,7.10
2023-03-28T21:28:41.794Z,7.17
2023-03-28T21:31:12.050Z,7.38
2023-03-28T21:33:41.460Z,7.39
2023-03-28T21:36:11.773Z,7.31
2023-03-28T21:38:39.686Z,7.21
2023-03-28T21:41:08.814Z,7.17
2023-03-28T21:43:37.146Z,7.04
2023-03-28T21:46:05.619Z,7.08
2023-03-28T21:48:33.580Z,7.10
2023-03-28T21:51:02.456Z,7.13
2023-03-28T21:53:32.564Z,7.07
2023-03-28T21:56:01.183Z,7.14
2023-03-28T21:58:33.384Z,7.14
2023-03-28T22:01:02.773Z,7.18
2023-03-28T22:03:31.913Z,7.07
2023-03-28T22:06:00.564Z,7.02
2023-03-28T22:08:28.346Z,6.95
2023-03-28T22:11:01.292Z,6.95
2023-03-28T22:13:31.007Z,7.01
2023-03-28T22:15:59.517Z,6.93
2023-03-28T22:18:27.826Z,6.89
2023-03-28T22:20:56.502Z,6.92
2023-03-28T22:23:25.616Z,6.75
2023-03-28T22:25:53.671Z,6.76
2023-03-28T22:28:24.927Z,6.73
2023-03-28T22:30:56.712Z,6.66
2023-03-28T22:33:25.707Z,6.62
2023-03-28T22:35:53.928Z,6.64
2023-03-28T22:38:21.655Z,6.67
2023-03-28T22:40:49.344Z,6.63
2023-03-28T22:43:17.708Z,6.60
2023-03-28T22:45:45.427Z,6.58
2023-03-28T22:48:15.049Z,6.53
2023-03-28T22:50:45.238Z,6.55
2023-03-28T22:53:14.178Z,6.53
2023-03-28T22:55:43.484Z,6.54
2023-03-28T22:58:11.965Z,6.61
2023-03-28T23:00:40.466Z,6.61
2023-03-28T23:03:08.885Z,6.58
2023-03-28T23:05:39.104Z,6.60
2023-03-28T23:08:07.423Z,6.56
2023-03-28T23:10:35.810Z,6.63
2023-03-28T23:13:03.969Z,6.64
2023-03-28T23:15:31.942Z,6.65
2023-03-28T23:18:00.170Z,6.67
2023-03-28T23:20:28.286Z,6.62
2023-03-28T23:22:57.601Z,6.61
2023-03-28T23:25:26.156Z,6.63
2023-03-28T23:27:53.906Z,6.59
2023-03-28T23:30:22.167Z,6.61
2023-03-28T23:32:50.201Z,6.65
2023-03-28T23:35:18.324Z,6.75
2023-03-28T23:37:46.769Z,6.77
2023-03-28T23:40:16.373Z,6.74
2023-03-28T23:42:45.160Z,6.76
2023-03-28T23:45:15.628Z,6.66
2023-03-28T23:47:44.585Z,6.57
2023-03-28T23:50:13.648Z,6.61
2023-03-28T23:52:41.872Z,6.64
2023-03-28T23:55:10.347Z,6.68
2023-03-28T23:57:40.075Z,6.70
